createdAt,value
2023-02-08T00:00:44.812Z,82.99
2023-02-08T00:03:12.169Z,84.00
2023-02-08T00:05:39.368Z,83.60
2023-02-08T00:08:06.390Z,83.17
2023-02-08T00:10:33.410Z,83.47
2023-02-08T00:13:00.507Z,83.15
2023-02-08T00:15:27.562Z,82.32
2023-02-08T00:17:54.664Z,82.17
2023-02-08T00:20:21.640Z,81.91
2023-02-08T00:22:51.987Z,81.76
2023-02-08T00:25:19.637Z,81.96
2023-02-08T00:27:46.592Z,84.51
2023-02-08T00:30:13.620Z,86.36
2023-02-08T00:32:40.719Z,86.95
2023-02-08T00:35:08.208Z,84.82
2023-02-08T00:37:35.128Z,85.72
2023-02-08T00:40:02.889Z,85.74
2023-02-08T00:42:30.519Z,84.91
2023-02-08T00:44:57.863Z,83.90
2023-02-08T00:47:25.418Z,83.06
2023-02-08T00:49:52.544Z,82.71
2023-02-08T00:52:19.839Z,82.79
2023-02-08T00:54:47.348Z,82.92
2023-02-08T00:57:14.523Z,82.77
2023-02-08T00:59:41.757Z,83.37
2023-02-08T01:02:09.544Z,83.17
2023-02-08T01:04:36.642Z,83.08
2023-02-08T01:07:03.675Z,82.75
2023-02-08T01:09:31.197Z,82.96
2023-02-08T01:11:58.116Z,82.93
2023-02-08T01:14:25.501Z,82.78
2023-02-08T01:16:53.405Z,82.96
2023-02-08T01:19:20.630Z,83.15
2023-02-08T01:21:49.620Z,82.98
2023-02-08T01:24:16.926Z,83.08
2023-02-08T01:26:44.158Z,82.84
2023-02-08T01:29:11.349Z,82.40
2023-02-08T01:31:39.382Z,82.68
2023-02-08T01:34:07.111Z,83.52
2023-02-08T01:36:34.335Z,84.93
2023-02-08T01:39:01.481Z,84.78
2023-02-08T01:41:30.088Z,85.42
2023-02-08T01:43:57.619Z,86.22
2023-02-08T01:46:24.939Z,86.01
2023-02-08T01:48:52.444Z,85.12
2023-02-08T01:51:22.467Z,84.68
2023-02-08T01:53:50.607Z,84.02
2023-02-08T01:56:21.272Z,84.18
2023-02-08T01:58:52.559Z,83.89
2023-02-08T02:01:19.774Z,84.22
2023-02-08T02:03:46.974Z,84.26
2023-02-08T02:06:16.549Z,84.10
2023-02-08T02:08:48.024Z,84.00
2023-02-08T02:11:15.189Z,84.10
2023-02-08T02:13:42.292Z,84.30
2023-02-08T02:16:09.127Z,84.49
2023-02-08T02:18:36.027Z,84.44
2023-02-08T02:21:03.258Z,84.21
2023-02-08T02:23:33.192Z,84.32
2023-02-08T02:26:03.247Z,84.46
2023-02-08T02:28:33.239Z,84.60
2023-02-08T02:31:03.412Z,84.79
2023-02-08T02:33:33.601Z,85.10
2023-02-08T02:36:03.669Z,85.10
2023-02-08T02:38:38.321Z,85.56
2023-02-08T02:41:05.628Z,85.85
2023-02-08T02:43:43.321Z,85.99
2023-02-08T02:46:13.381Z,86.31
2023-02-08T02:48:43.329Z,86.34
2023-02-08T02:51:13.452Z,86.13
2023-02-08T02:53:43.530Z,86.25
2023-02-08T02:56:13.559Z,86.36
2023-02-08T02:58:41.050Z,86.38
2023-02-08T03:01:08.081Z,86.55
2023-02-08T03:03:35.252Z,86.50
2023-02-08T03:06:05.535Z,86.61
2023-02-08T03:08:35.445Z,86.42
2023-02-08T03:11:06.157Z,86.68
2023-02-08T03:13:33.532Z,87.06
2023-02-08T03:16:02.461Z,87.28
2023-02-08T03:18:32.400Z,87.25
2023-02-08T03:21:02.731Z,87.23
2023-02-08T03:23:32.140Z,88.26
2023-02-08T03:26:00.373Z,87.74
2023-02-08T03:28:30.924Z,87.94
2023-02-08T03:31:03.869Z,87.90
2023-02-08T03:33:33.832Z,88.08
2023-02-08T03:36:03.834Z,88.23
2023-02-08T03:38:34.183Z,89.61
2023-02-08T03:41:02.796Z,90.72
2023-02-08T03:43:34.236Z,90.98
2023-02-08T03:46:04.257Z,90.10
2023-02-08T03:48:31.784Z,89.36
2023-02-08T03:50:59.118Z,89.21
2023-02-08T03:53:27.055Z,88.88
2023-02-08T03:55:58.562Z,88.80
2023-02-08T03:58:28.324Z,88.64
2023-02-08T04:00:58.478Z,89.28
2023-02-08T04:03:27.678Z,91.00
2023-02-08T04:05:55.031Z,92.27
2023-02-08T04:08:22.249Z,92.75
2023-02-08T04:10:49.193Z,92.33
2023-02-08T04:13:16.191Z,91.54
2023-02-08T04:15:44.550Z,91.22
2023-02-08T04:18:11.763Z,91.04
2023-02-08T04:20:38.979Z,90.48
2023-02-08T04:23:06.089Z,90.04
2023-02-08T04:25:33.171Z,89.43
2023-02-08T04:28:00.186Z,89.58
2023-02-08T04:30:27.161Z,89.86
2023-02-08T04:32:54.342Z,90.44
2023-02-08T04:35:21.295Z,90.40
2023-02-08T04:37:48.559Z,90.18
2023-02-08T04:40:15.536Z,90.85
2023-02-08T04:42:42.410Z,92.18
2023-02-08T04:45:10.162Z,92.45
2023-02-08T04:47:37.083Z,92.12
2023-02-08T04:50:04.381Z,91.24
2023-02-08T04:52:31.376Z,91.13
2023-02-08T04:54:58.264Z,91.92
2023-02-08T04:57:25.199Z,92.34
2023-02-08T04:59:51.998Z,91.79
2023-02-08T05:02:18.892Z,91.36
2023-02-08T05:04:45.756Z,90.98
2023-02-08T05:07:12.720Z,91.05
2023-02-08T05:09:39.584Z,90.38
2023-02-08T05:12:06.572Z,90.13
2023-02-08T05:14:33.515Z,90.33
2023-02-08T05:17:00.396Z,90.13
2023-02-08T05:19:27.284Z,90.05
2023-02-08T05:21:54.366Z,90.25
2023-02-08T05:24:21.267Z,90.29
2023-02-08T05:26:48.063Z,89.75
2023-02-08T05:29:15.695Z,89.66
2023-02-08T05:31:42.783Z,90.46
2023-02-08T05:34:09.811Z,91.52
2023-02-08T05:36:36.720Z,90.43
2023-02-08T05:39:03.723Z,89.55
2023-02-08T05:41:30.624Z,88.70
2023-02-08T05:43:57.506Z,88.83
2023-02-08T05:46:24.513Z,88.80
2023-02-08T05:48:51.672Z,88.70
2023-02-08T05:51:18.524Z,88.98
2023-02-08T05:53:45.668Z,89.47
2023-02-08T05:56:12.518Z,89.02
2023-02-08T05:58:39.605Z,88.49
2023-02-08T06:01:10.152Z,88.13
2023-02-08T06:03:37.427Z,88.44
2023-02-08T06:06:04.406Z,88.07
2023-02-08T06:08:31.422Z,88.39
2023-02-08T06:10:58.389Z,88.50
2023-02-08T06:13:25.273Z,88.48
2023-02-08T06:15:52.229Z,88.70
2023-02-08T06:18:19.056Z,88.46
2023-02-08T06:20:45.992Z,89.26
2023-02-08T06:23:12.919Z,90.07
2023-02-08T06:25:39.723Z,90.15
2023-02-08T06:28:07.148Z,90.10
2023-02-08T06:30:34.609Z,88.90
2023-02-08T06:33:01.530Z,88.56
2023-02-08T06:35:28.507Z,88.44
2023-02-08T06:37:55.410Z,87.76
2023-02-08T06:40:22.330Z,88.05
2023-02-08T06:42:49.403Z,88.90
2023-02-08T06:45:16.440Z,88.84
2023-02-08T06:47:43.447Z,88.91
2023-02-08T06:50:10.803Z,89.35
2023-02-08T06:52:37.853Z,89.26
2023-02-08T06:55:05.205Z,89.16
2023-02-08T06:57:32.635Z,88.61
2023-02-08T06:59:59.827Z,88.94
2023-02-08T07:02:26.851Z,89.57
2023-02-08T07:04:53.759Z,89.49
2023-02-08T07:07:20.712Z,89.31
2023-02-08T07:09:47.755Z,89.12
2023-02-08T07:12:14.650Z,89.37
2023-02-08T07:14:42.384Z,89.57
2023-02-08T07:17:09.493Z,90.25
2023-02-08T07:19:36.565Z,90.14
2023-02-08T07:22:08.483Z,90.15
2023-02-08T07:24:37.260Z,90.44
2023-02-08T07:27:05.093Z,91.39
2023-02-08T07:29:32.903Z,90.84
2023-02-08T07:32:00.573Z,91.04
2023-02-08T07:34:29.372Z,91.34
2023-02-08T07:36:57.604Z,90.90
2023-02-08T07:39:25.039Z,90.23
2023-02-08T07:41:52.125Z,91.75
2023-02-08T07:44:19.226Z,91.83
2023-02-08T07:46:46.154Z,91.87
2023-02-08T07:49:13.149Z,92.22
2023-02-08T07:51:40.055Z,93.35
2023-02-08T07:54:07.069Z,92.56
2023-02-08T07:56:34.083Z,90.79
2023-02-08T07:59:01.153Z,89.11
2023-02-08T08:01:28.145Z,88.37
2023-02-08T08:03:55.317Z,88.00
2023-02-08T08:06:22.996Z,87.27
2023-02-08T08:08:50.215Z,87.17
2023-02-08T08:11:18.481Z,87.02
2023-02-08T08:13:45.616Z,85.99
2023-02-08T08:16:13.228Z,86.39
2023-02-08T08:18:40.211Z,86.67
2023-02-08T08:21:07.778Z,86.29
2023-02-08T08:23:36.697Z,85.44
2023-02-08T08:26:06.906Z,85.06
2023-02-08T08:28:34.263Z,84.55
2023-02-08T08:31:01.574Z,84.45
2023-02-08T08:33:28.619Z,84.88
2023-02-08T08:35:55.904Z,84.76
2023-02-08T08:38:23.443Z,84.33
2023-02-08T08:40:50.868Z,84.20
2023-02-08T08:43:18.087Z,84.26
2023-02-08T08:45:45.396Z,83.89
2023-02-08T08:48:13.430Z,83.19
2023-02-08T08:50:41.425Z,83.10
2023-02-08T08:53:08.939Z,83.29
2023-02-08T08:55:36.217Z,83.60
2023-02-08T08:58:03.440Z,83.96
2023-02-08T09:00:30.684Z,84.22
2023-02-08T09:02:58.271Z,84.14
2023-02-08T09:05:25.571Z,84.18
2023-02-08T09:07:52.882Z,84.20
2023-02-08T09:10:20.215Z,84.34
2023-02-08T09:12:47.663Z,84.52
2023-02-08T09:15:14.999Z,84.46
2023-02-08T09:17:42.243Z,84.15
2023-02-08T09:20:09.653Z,83.73
2023-02-08T09:22:36.754Z,83.50
2023-02-08T09:25:04.768Z,83.09
2023-02-08T09:27:31.769Z,84.42
2023-02-08T09:29:58.962Z,82.98
2023-02-08T09:32:25.985Z,82.08
2023-02-08T09:34:52.985Z,81.99
2023-02-08T09:37:20.056Z,82.39
2023-02-08T09:39:47.143Z,82.09
2023-02-08T09:42:14.608Z,81.96
2023-02-08T09:44:42.036Z,82.65
2023-02-08T09:47:12.217Z,82.41
2023-02-08T09:49:44.026Z,81.55
2023-02-08T09:52:14.087Z,80.64
2023-02-08T09:54:44.034Z,80.47
2023-02-08T09:57:14.142Z,79.86
2023-02-08T09:59:47.493Z,79.30
2023-02-08T10:02:20.003Z,79.61
2023-02-08T10:04:47.506Z,78.62
2023-02-08T10:07:14.612Z,78.59
2023-02-08T10:09:41.653Z,77.86
2023-02-08T10:12:11.737Z,77.72
2023-02-08T10:14:40.299Z,77.90
2023-02-08T10:17:11.654Z,77.89
2023-02-08T10:19:48.216Z,77.58
2023-02-08T10:22:18.296Z,77.11
2023-02-08T10:24:48.353Z,76.79
2023-02-08T10:27:17.518Z,76.30
2023-02-08T10:29:45.873Z,75.52
2023-02-08T10:32:16.274Z,75.54
2023-02-08T10:34:43.889Z,74.87
2023-02-08T10:37:17.349Z,74.44
2023-02-08T10:39:45.256Z,73.90
2023-02-08T10:42:15.579Z,73.59
2023-02-08T10:44:47.529Z,72.95
2023-02-08T10:47:18.747Z,72.45
2023-02-08T10:49:53.455Z,72.20
2023-02-08T10:52:20.561Z,71.94
2023-02-08T10:54:47.611Z,71.88
2023-02-08T10:57:18.722Z,71.91
2023-02-08T10:59:50.205Z,72.24
2023-02-08T11:02:20.340Z,72.75
2023-02-08T11:04:50.392Z,73.09
2023-02-08T11:07:21.783Z,72.36
2023-02-08T11:09:48.868Z,72.06
2023-02-08T11:12:19.184Z,71.99
2023-02-08T11:14:49.237Z,71.30
2023-02-08T11:17:19.484Z,72.00
2023-02-08T11:19:46.725Z,71.69
2023-02-08T11:22:16.509Z,72.23
2023-02-08T11:24:50.772Z,72.93
2023-02-08T11:27:19.510Z,73.32
2023-02-08T11:29:46.740Z,73.24
2023-02-08T11:32:19.119Z,73.45
2023-02-08T11:34:46.683Z,72.68
2023-02-08T11:37:17.033Z,72.52
2023-02-08T11:39:50.120Z,71.64
2023-02-08T11:42:20.849Z,71.11
2023-02-08T11:44:49.172Z,70.97
2023-02-08T11:47:20.531Z,71.12
2023-02-08T11:49:51.648Z,70.54
2023-02-08T11:52:21.814Z,68.83
2023-02-08T11:54:49.491Z,67.50
2023-02-08T11:57:19.516Z,66.98
2023-02-08T11:59:47.552Z,66.31
2023-02-08T12:02:17.793Z,65.67
2023-02-08T12:04:45.268Z,65.52
2023-02-08T12:07:15.551Z,62.92
2023-02-08T12:09:44.211Z,61.47
2023-02-08T12:12:14.942Z,61.68
2023-02-08T12:14:45.096Z,60.54
2023-02-08T12:17:15.271Z,60.01
2023-02-08T12:19:45.438Z,60.26
2023-02-08T12:22:17.189Z,59.25
2023-02-08T12:24:44.670Z,59.41
2023-02-08T12:27:17.162Z,58.60
2023-02-08T12:29:48.473Z,58.71
2023-02-08T12:32:16.104Z,58.08
2023-02-08T12:34:47.123Z,59.07
2023-02-08T12:37:17.859Z,59.30
2023-02-08T12:39:54.955Z,59.62
2023-02-08T12:42:31.373Z,59.67
2023-02-08T12:45:01.565Z,59.21
2023-02-08T12:47:33.004Z,59.04
2023-02-08T12:50:01.643Z,58.45
2023-02-08T12:52:29.960Z,58.72
2023-02-08T12:54:58.618Z,60.08
2023-02-08T12:57:27.506Z,59.67
2023-02-08T12:59:56.555Z,58.50
2023-02-08T13:02:27.589Z,58.67
2023-02-08T13:04:59.920Z,58.11
2023-02-08T13:07:27.566Z,58.28
2023-02-08T13:09:57.906Z,58.48
2023-02-08T13:12:27.812Z,58.91
2023-02-08T13:15:01.893Z,59.23
2023-02-08T13:17:37.208Z,59.23
2023-02-08T13:20:07.589Z,59.57
2023-02-08T13:22:38.231Z,58.43
2023-02-08T13:25:08.852Z,58.59
2023-02-08T13:27:37.363Z,60.17
2023-02-08T13:30:06.071Z,58.64
2023-02-08T13:32:41.465Z,57.07
2023-02-08T13:35:13.084Z,53.85
2023-02-08T13:37:40.285Z,53.04
2023-02-08T13:40:17.744Z,53.12
2023-02-08T13:42:49.185Z,50.22
2023-02-08T13:45:19.278Z,49.02
2023-02-08T13:47:49.089Z,49.29
2023-02-08T13:50:19.636Z,47.85
2023-02-08T13:52:48.958Z,47.47
2023-02-08T13:55:19.329Z,47.08
2023-02-08T13:57:55.186Z,46.52
2023-02-08T14:00:23.369Z,46.06
2023-02-08T14:02:53.718Z,48.09
2023-02-08T14:05:24.051Z,48.27
2023-02-08T14:07:52.562Z,48.04
2023-02-08T14:10:24.797Z,45.67
2023-02-08T14:12:53.262Z,45.51
2023-02-08T14:15:26.532Z,45.90
2023-02-08T14:17:58.156Z,44.40
2023-02-08T14:20:29.477Z,42.61
2023-02-08T14:22:58.552Z,42.38
2023-02-08T14:25:28.284Z,40.86
2023-02-08T14:27:58.230Z,42.14
2023-02-08T14:30:27.144Z,42.33
2023-02-08T14:33:09.178Z,42.48
2023-02-08T14:35:38.213Z,43.56
2023-02-08T14:38:08.224Z,44.09
2023-02-08T14:40:49.096Z,45.35
2023-02-08T14:43:24.288Z,44.82
2023-02-08T14:45:53.185Z,45.86
2023-02-08T14:48:23.440Z,46.99
2023-02-08T14:50:53.731Z,48.25
2023-02-08T14:53:23.974Z,48.61
2023-02-08T14:55:54.659Z,49.15
2023-02-08T14:58:25.468Z,49.82
2023-02-08T15:03:22.724Z,51.99
2023-02-08T15:05:53.207Z,52.55
2023-02-08T15:08:21.993Z,53.39
2023-02-08T15:10:49.188Z,54.29
2023-02-08T15:13:19.602Z,55.55
2023-02-08T15:15:50.881Z,54.73
2023-02-08T15:18:20.709Z,55.82
2023-02-08T15:20:56.603Z,55.87
2023-02-08T15:23:24.701Z,56.35
2023-02-08T15:25:54.836Z,57.14
2023-02-08T15:28:23.651Z,57.87
2023-02-08T15:30:53.904Z,56.38
2023-02-08T15:33:21.666Z,54.20
2023-02-08T15:35:51.893Z,53.49
2023-02-08T15:38:21.669Z,53.35
2023-02-08T15:40:55.080Z,53.77
2023-02-08T15:43:22.205Z,53.68
2023-02-08T15:45:57.660Z,53.95
2023-02-08T15:48:26.053Z,54.48
2023-02-08T15:50:54.143Z,55.58
2023-02-08T15:53:22.063Z,55.13
2023-02-08T15:55:53.336Z,56.02
2023-02-08T15:58:29.096Z,55.84
2023-02-08T16:00:58.631Z,56.14
2023-02-08T16:03:27.589Z,55.30
2023-02-08T16:05:56.459Z,56.43
2023-02-08T16:08:28.104Z,56.94
2023-02-08T16:10:57.772Z,57.12
2023-02-08T16:13:26.968Z,57.65
2023-02-08T16:16:07.276Z,58.03
2023-02-08T16:18:39.918Z,58.22
2023-02-08T16:21:19.657Z,58.48
2023-02-08T16:23:50.226Z,58.38
2023-02-08T16:26:20.654Z,59.34
2023-02-08T16:28:52.481Z,59.67
2023-02-08T16:31:22.484Z,59.11
2023-02-08T16:33:57.259Z,59.79
2023-02-08T16:36:26.230Z,61.06
2023-02-08T16:38:56.789Z,60.82
2023-02-08T16:41:43.960Z,61.36
2023-02-08T16:44:17.033Z,62.01
2023-02-08T16:46:45.423Z,61.44
2023-02-08T16:49:12.788Z,60.73
2023-02-08T16:51:43.910Z,60.05
2023-02-08T16:54:14.950Z,60.17
2023-02-08T16:56:43.034Z,60.11
2023-02-08T16:59:11.343Z,61.21
2023-02-08T17:01:39.137Z,61.42
2023-02-08T17:04:06.868Z,61.42
2023-02-08T17:06:36.610Z,61.12
2023-02-08T17:09:05.595Z,61.75
2023-02-08T17:11:33.225Z,60.78
2023-02-08T17:14:00.447Z,61.04
2023-02-08T17:16:29.044Z,61.86
2023-02-08T17:18:56.616Z,61.28
2023-02-08T17:21:24.652Z,60.94
2023-02-08T17:23:52.140Z,61.71
2023-02-08T17:26:22.861Z,61.44
2023-02-08T17:28:55.657Z,61.84
2023-02-08T17:31:23.909Z,62.75
2023-02-08T17:33:51.768Z,63.82
2023-02-08T17:36:19.584Z,63.10
2023-02-08T17:38:47.358Z,63.63
2023-02-08T17:41:16.392Z,63.43
2023-02-08T17:43:44.178Z,63.16
2023-02-08T17:46:14.800Z,63.36
2023-02-08T17:48:42.559Z,63.58
2023-02-08T17:51:11.225Z,63.68
2023-02-08T17:53:41.393Z,64.03
2023-02-08T17:56:11.853Z,64.94
2023-02-08T17:58:39.496Z,64.74
2023-02-08T18:01:07.708Z,65.88
2023-02-08T18:03:35.430Z,65.13
2023-02-08T18:06:02.723Z,65.52
2023-02-08T18:08:30.102Z,66.53
2023-02-08T18:11:02.723Z,66.10
2023-02-08T18:13:30.212Z,65.59
2023-02-08T18:15:57.812Z,66.18
2023-02-08T18:18:25.276Z,66.88
2023-02-08T18:20:52.546Z,66.98
2023-02-08T18:23:20.043Z,66.85
2023-02-08T18:25:47.685Z,66.64
2023-02-08T18:28:17.093Z,66.71
2023-02-08T18:30:44.920Z,66.95
2023-02-08T18:33:14.241Z,67.14
2023-02-08T18:35:42.116Z,67.27
2023-02-08T18:38:09.458Z,67.73
2023-02-08T18:40:36.869Z,68.34
2023-02-08T18:43:04.217Z,68.74
2023-02-08T18:45:31.427Z,68.89
2023-02-08T18:47:59.341Z,69.05
2023-02-08T18:50:26.787Z,68.93
2023-02-08T18:52:54.236Z,69.30
2023-02-08T18:55:21.594Z,69.74
2023-02-08T18:57:48.911Z,69.99
2023-02-08T19:00:16.639Z,73.44
2023-02-08T19:02:45.757Z,73.35
2023-02-08T19:05:12.915Z,73.44
2023-02-08T19:07:40.636Z,73.43
2023-02-08T19:10:08.121Z,72.92
2023-02-08T19:12:36.042Z,74.35
2023-02-08T19:15:03.308Z,74.66
2023-02-08T19:17:30.537Z,74.52
2023-02-08T19:19:57.740Z,74.96
2023-02-08T19:22:24.934Z,75.95
2023-02-08T19:24:52.207Z,75.10
2023-02-08T19:27:19.350Z,73.96
2023-02-08T19:29:46.697Z,75.05
2023-02-08T19:32:14.012Z,74.96
2023-02-08T19:34:42.041Z,74.07
2023-02-08T19:37:09.157Z,74.94
2023-02-08T19:39:36.285Z,75.75
2023-02-08T19:42:03.240Z,75.13
2023-02-08T19:44:30.836Z,74.68
2023-02-08T19:46:58.705Z,74.56
2023-02-08T19:49:26.557Z,75.09
2023-02-08T19:51:53.624Z,75.25
2023-02-08T19:54:21.090Z,74.86
2023-02-08T19:56:50.672Z,75.72
2023-02-08T19:59:19.671Z,76.67
2023-02-08T20:01:47.034Z,76.74
2023-02-08T20:04:14.765Z,76.76
2023-02-08T20:06:42.302Z,76.59
2023-02-08T20:09:09.375Z,76.03
2023-02-08T20:11:45.073Z,75.71
2023-02-08T20:14:23.370Z,76.21
2023-02-08T20:16:51.099Z,76.76
2023-02-08T20:19:19.841Z,76.84
2023-02-08T20:21:47.803Z,77.50
2023-02-08T20:24:16.208Z,77.75
2023-02-08T20:26:44.804Z,77.12
2023-02-08T20:29:12.302Z,77.12
2023-02-08T20:31:41.362Z,77.36
2023-02-08T20:34:09.326Z,77.59
2023-02-08T20:36:41.043Z,77.52
2023-02-08T20:39:09.618Z,77.50
2023-02-08T20:41:38.632Z,77.06
2023-02-08T20:44:05.711Z,77.55
2023-02-08T20:46:35.057Z,77.75
2023-02-08T20:49:03.230Z,78.05
2023-02-08T20:51:30.915Z,78.01
2023-02-08T20:53:58.690Z,77.83
2023-02-08T20:56:27.191Z,77.89
2023-02-08T20:58:55.646Z,77.55
2023-02-08T21:01:25.519Z,78.11
2023-02-08T21:03:54.531Z,78.33
2023-02-08T21:06:23.276Z,77.98
2023-02-08T21:08:53.336Z,78.43
2023-02-08T21:11:21.332Z,77.87
2023-02-08T21:13:48.551Z,77.55
2023-02-08T21:16:16.944Z,78.05
2023-02-08T21:18:44.500Z,80.42
2023-02-08T21:21:12.276Z,80.67
2023-02-08T21:23:39.674Z,80.46
2023-02-08T21:26:07.912Z,79.67
2023-02-08T21:28:35.297Z,80.67
2023-02-08T21:31:04.740Z,80.52
2023-02-08T21:33:32.940Z,80.37
2023-02-08T21:36:03.612Z,79.46
2023-02-08T21:38:31.120Z,80.14
2023-02-08T21:40:58.692Z,80.40
2023-02-08T21:43:26.321Z,80.91
2023-02-08T21:45:54.140Z,80.66
2023-02-08T21:48:22.115Z,81.46
2023-02-08T21:50:52.456Z,81.44
2023-02-08T21:53:22.670Z,81.86
2023-02-08T21:55:49.773Z,82.02
2023-02-08T21:58:16.794Z,81.66
2023-02-08T22:00:44.504Z,80.92
2023-02-08T22:03:11.785Z,80.12
2023-02-08T22:05:38.925Z,79.39
2023-02-08T22:08:06.287Z,79.86
2023-02-08T22:10:33.333Z,82.17
2023-02-08T22:13:00.461Z,84.13
2023-02-08T22:15:28.748Z,83.95
2023-02-08T22:17:56.539Z,83.60
2023-02-08T22:20:23.659Z,83.35
2023-02-08T22:22:54.861Z,82.34
2023-02-08T22:25:22.518Z,80.55
2023-02-08T22:27:49.733Z,81.79
2023-02-08T22:30:17.463Z,81.31
2023-02-08T22:32:45.346Z,81.74
2023-02-08T22:35:12.994Z,81.65
2023-02-08T22:37:40.508Z,82.36
2023-02-08T22:40:08.497Z,83.84
2023-02-08T22:42:35.419Z,82.95
2023-02-08T22:45:02.421Z,83.94
2023-02-08T22:47:29.390Z,84.05
2023-02-08T22:49:57.745Z,83.58
2023-02-08T22:52:26.028Z,83.63
2023-02-08T22:54:53.651Z,83.19
2023-02-08T22:57:20.925Z,82.69
2023-02-08T22:59:48.125Z,83.04
2023-02-08T23:02:17.931Z,83.81
2023-02-08T23:04:45.016Z,82.75
2023-02-08T23:07:12.107Z,83.31
2023-02-08T23:09:39.003Z,84.70
2023-02-08T23:12:06.220Z,84.17
2023-02-08T23:14:34.391Z,83.14
2023-02-08T23:17:01.560Z,83.44
2023-02-08T23:19:29.048Z,83.37
2023-02-08T23:21:59.664Z,84.10
2023-02-08T23:24:26.861Z,84.17
2023-02-08T23:26:54.040Z,83.70
2023-02-08T23:29:21.110Z,83.15
2023-02-08T23:31:48.200Z,82.81
2023-02-08T23:34:15.263Z,83.38
2023-02-08T23:36:42.326Z,82.93
2023-02-08T23:39:12.284Z,82.77
2023-02-08T23:41:39.198Z,84.14
2023-02-08T23:44:06.211Z,84.41
2023-02-08T23:46:33.116Z,83.27
2023-02-08T23:48:59.981Z,83.13
2023-02-08T23:51:27.185Z,83.52
2023-02-08T23:53:54.475Z,83.38
2023-02-08T23:56:24.363Z,83.86
2023-02-08T23:58:52.959Z,85.06
